Time;durP1;ratioP1;P1;durP2;ratioP2;P2;SDS_P1;SDS_P2;PMS_P1;PMS_P2;Temp;Humidity;BMP_temperature;BMP_pressure;BME280_temperature;BME280_humidity;BME280_pressure;Samples;Min_cycle;Max_cycle;Signal;HPM_P1;HPM_P2
2022/03/15 00:00:51;;;;;;;76.97;65.47;;;;;;;-3.92;100.00;103100.88;5033693;28;20053;-81
2022/03/15 00:03:18;;;;;;;73.18;64.60;;;;;;;-3.95;100.00;103093.19;5024364;28;20122;-80
2022/03/15 00:05:46;;;;;;;70.60;60.58;;;;;;;-3.48;100.00;103103.63;5023432;28;20046;-79
2022/03/15 00:08:13;;;;;;;71.65;63.83;;;;;;;-3.86;100.00;103099.81;5031261;28;20049;-80
2022/03/15 00:10:40;;;;;;;67.15;59.92;;;;;;;-3.64;100.00;103097.31;5029255;28;20056;-81
2022/03/15 00:13:08;;;;;;;79.43;63.15;;;;;;;-3.44;100.00;103094.84;5022557;28;20054;-79
2022/03/15 00:15:35;;;;;;;73.13;62.33;;;;;;;-3.81;100.00;103090.97;5031722;28;20061;-80
2022/03/15 00:18:03;;;;;;;83.60;64.65;;;;;;;-3.87;100.00;103083.41;5027674;28;20111;-80
2022/03/15 00:20:30;;;;;;;75.72;65.05;;;;;;;-3.88;100.00;103093.81;5026034;28;20429;-79
2022/03/15 00:22:59;;;;;;;73.57;64.50;;;;;;;-3.65;100.00;103085.22;5024499;28;20053;-78
2022/03/15 00:25:27;;;;;;;74.95;66.10;;;;;;;-3.59;100.00;103083.25;5033974;28;20060;-81
2022/03/15 00:27:55;;;;;;;90.55;68.55;;;;;;;-3.50;100.00;103077.72;5014619;28;20053;-82
2022/03/15 00:30:24;;;;;;;91.63;66.80;;;;;;;-3.37;100.00;103080.69;5029425;28;20127;-80
2022/03/15 00:32:51;;;;;;;99.35;70.80;;;;;;;-3.39;100.00;103084.25;5018701;28;20111;-80
2022/03/15 00:35:19;;;;;;;91.28;72.50;;;;;;;-3.57;100.00;103080.56;5032405;28;20053;-80
2022/03/15 00:37:46;;;;;;;82.28;69.82;;;;;;;-3.61;100.00;103073.81;5028981;28;20057;-83
2022/03/15 00:40:15;;;;;;;78.18;63.42;;;;;;;-3.43;100.00;103072.28;5024231;28;20053;-81
2022/03/15 00:42:46;;;;;;;92.45;69.10;;;;;;;-3.41;100.00;103075.69;5027458;28;20046;-80
2022/03/15 00:45:13;;;;;;;115.18;74.53;;;;;;;-3.91;100.00;103064.47;5021549;28;20050;-82
2022/03/15 00:47:39;;;;;;;141.75;88.38;;;;;;;-3.51;100.00;103068.22;5023004;28;20053;-80
2022/03/15 00:50:07;;;;;;;97.50;69.70;;;;;;;-4.03;100.00;103070.09;5024043;28;20045;-80
2022/03/15 00:52:34;;;;;;;112.68;83.70;;;;;;;-3.79;100.00;103062.34;5023953;28;20486;-81
2022/03/15 00:55:01;;;;;;;120.68;82.43;;;;;;;-3.80;100.00;103058.06;5030747;28;20057;-81
2022/03/15 00:57:29;;;;;;;141.60;87.70;;;;;;;-3.75;100.00;103057.00;5021605;28;20052;-79
2022/03/15 00:59:56;;;;;;;120.30;77.93;;;;;;;-3.85;100.00;103055.59;5014940;28;20046;-80
2022/03/15 01:02:22;;;;;;;123.65;82.85;;;;;;;-3.81;100.00;103048.56;5024674;28;20135;-82
2022/03/15 01:04:49;;;;;;;116.18;72.80;;;;;;;-4.15;100.00;103049.75;5023878;28;20465;-78
2022/03/15 01:07:16;;;;;;;125.93;78.43;;;;;;;-4.11;100.00;103047.88;5023560;28;20041;-82
2022/03/15 01:09:43;;;;;;;125.25;85.07;;;;;;;-4.26;100.00;103041.50;5029664;28;20115;-82
2022/03/15 01:12:11;;;;;;;117.40;81.95;;;;;;;-3.96;100.00;103037.84;5022088;28;20112;-78
2022/03/15 01:14:39;;;;;;;119.15;81.55;;;;;;;-3.86;100.00;103045.28;5028658;28;20435;-80
2022/03/15 01:17:06;;;;;;;103.75;80.10;;;;;;;-4.02;100.00;103043.25;5026010;28;20041;-79
2022/03/15 01:19:33;;;;;;;95.68;77.70;;;;;;;-3.96;100.00;103045.63;5025556;28;20042;-80
2022/03/15 01:22:00;;;;;;;95.25;74.60;;;;;;;-4.24;100.00;103048.31;5023985;28;20060;-80
2022/03/15 01:24:27;;;;;;;99.63;74.32;;;;;;;-4.16;100.00;103040.28;5029631;28;20053;-82
2022/03/15 01:26:54;;;;;;;102.57;76.13;;;;;;;-4.23;100.00;103038.81;5024083;28;20115;-80
2022/03/15 01:29:22;;;;;;;95.05;69.40;;;;;;;-4.36;100.00;103038.34;5026564;28;20049;-79
2022/03/15 01:31:50;;;;;;;81.75;64.75;;;;;;;-4.40;100.00;103039.38;5016339;28;20046;-79
2022/03/15 01:34:17;;;;;;;73.70;60.95;;;;;;;-4.32;100.00;103036.53;5026226;28;20060;-80
2022/03/15 01:36:44;;;;;;;74.97;65.80;;;;;;;-4.24;100.00;103037.09;5025497;28;20136;-80
2022/03/15 01:39:12;;;;;;;64.60;58.05;;;;;;;-4.12;100.00;103036.66;5024394;28;20551;-80
2022/03/15 01:41:40;;;;;;;74.57;60.92;;;;;;;-4.41;100.00;103043.72;5024155;28;20141;-82
2022/03/15 01:44:15;;;;;;;77.28;64.97;;;;;;;-4.41;100.00;103030.75;5014059;28;20379;-80
2022/03/15 01:46:42;;;;;;;72.05;62.97;;;;;;;-4.53;100.00;103038.94;5018593;28;20053;-82
2022/03/15 01:49:11;;;;;;;71.60;60.13;;;;;;;-4.53;100.00;103033.75;5023407;28;20128;-80
2022/03/15 01:51:40;;;;;;;81.65;64.10;;;;;;;-4.57;100.00;103037.34;5029354;28;20049;-79
2022/03/15 01:54:07;;;;;;;66.97;60.33;;;;;;;-4.59;100.00;103039.16;5026464;28;20425;-82
2022/03/15 01:56:34;;;;;;;64.60;56.92;;;;;;;-4.68;100.00;103045.50;5031241;28;20049;-80
2022/03/15 01:59:01;;;;;;;74.10;66.13;;;;;;;-4.80;100.00;103042.44;5024659;28;20478;-81
2022/03/15 02:01:28;;;;;;;87.68;70.68;;;;;;;-4.93;100.00;103045.44;5016102;28;20478;-81
2022/03/15 02:03:55;;;;;;;104.82;75.70;;;;;;;-4.85;100.00;103051.19;5022890;28;20112;-79
2022/03/15 02:06:23;;;;;;;88.10;69.85;;;;;;;-4.88;100.00;103059.09;5023134;28;20112;-79
2022/03/15 02:08:50;;;;;;;85.43;65.85;;;;;;;-4.91;100.00;103047.97;5027972;28;20065;-80
2022/03/15 02:11:17;;;;;;;94.35;69.95;;;;;;;-4.84;100.00;103058.09;5024750;28;20050;-81
2022/03/15 02:13:45;;;;;;;89.97;72.18;;;;;;;-4.76;100.00;103057.00;5025953;28;20045;-80
2022/03/15 02:16:11;;;;;;;97.22;72.55;;;;;;;-5.00;100.00;103058.63;5031188;28;21695;-82
2022/03/15 02:18:38;;;;;;;79.25;69.85;;;;;;;-4.62;100.00;103070.38;5022617;28;20119;-80
2022/03/15 02:21:08;;;;;;;88.03;64.70;;;;;;;-4.76;100.00;103065.63;5026654;28;20046;-79
2022/03/15 02:23:35;;;;;;;79.20;65.03;;;;;;;-4.96;100.00;103062.81;5015908;28;20064;-82
2022/03/15 02:26:02;;;;;;;83.18;65.82;;;;;;;-4.94;100.00;103061.03;5031714;28;20045;-80
2022/03/15 02:28:29;;;;;;;80.78;68.35;;;;;;;-4.79;100.00;103067.47;5021166;28;20120;-80
2022/03/15 02:30:56;;;;;;;69.82;61.50;;;;;;;-4.89;100.00;103074.69;5027361;28;20115;-80
2022/03/15 02:33:23;;;;;;;74.00;66.05;;;;;;;-4.85;100.00;103071.09;5031370;28;20045;-82
2022/03/15 02:35:50;;;;;;;69.93;61.10;;;;;;;-4.96;100.00;103062.81;5029419;28;20129;-80
2022/03/15 02:38:18;;;;;;;79.25;63.45;;;;;;;-5.11;100.00;103061.56;5028750;28;20257;-78
2022/03/15 02:40:45;;;;;;;72.88;64.82;;;;;;;-5.12;100.00;103072.81;5027061;28;20061;-79
2022/03/15 02:43:12;;;;;;;71.65;62.75;;;;;;;-5.11;100.00;103074.53;5026468;28;20123;-82
2022/03/15 02:45:39;;;;;;;72.82;65.18;;;;;;;-5.11;100.00;103093.50;5028023;28;20049;-80
2022/03/15 02:48:06;;;;;;;107.00;65.68;;;;;;;-5.20;100.00;103079.97;5027744;28;20050;-82
2022/03/15 02:50:32;;;;;;;267.92;113.32;;;;;;;-5.17;100.00;103090.25;5030521;28;20114;-80
2022/03/15 02:52:59;;;;;;;158.60;85.93;;;;;;;-5.22;100.00;103092.13;5023892;28;20447;-80
2022/03/15 02:55:30;;;;;;;187.30;95.35;;;;;;;-5.38;100.00;103097.75;5026726;28;20046;-79
2022/03/15 02:57:57;;;;;;;155.25;84.05;;;;;;;-5.46;100.00;103102.31;5027817;28;20046;-80
2022/03/15 03:02:54;;;;;;;113.55;75.75;;;;;;;-5.19;100.00;103102.41;4984471;28;20062;-82
2022/03/15 03:05:21;;;;;;;92.55;72.15;;;;;;;-5.36;100.00;103087.34;4984872;28;20047;-80
2022/03/15 03:07:48;;;;;;;104.20;74.32;;;;;;;-5.45;100.00;103092.78;4987394;28;20042;-80
2022/03/15 03:10:15;;;;;;;96.53;69.63;;;;;;;-5.69;100.00;103091.72;4987097;28;20058;-79
2022/03/15 03:12:44;;;;;;;123.57;76.97;;;;;;;-5.42;100.00;103100.47;4986397;28;20051;-80
2022/03/15 03:15:12;;;;;;;132.95;77.38;;;;;;;-5.56;100.00;103096.53;4985610;28;20117;-80
2022/03/15 03:17:40;;;;;;;112.00;74.35;;;;;;;-5.56;100.00;103087.94;4990962;28;20047;-82
2022/03/15 03:20:09;;;;;;;109.70;81.43;;;;;;;-5.56;100.00;103095.69;4979865;28;20051;-82
2022/03/15 03:22:36;;;;;;;120.65;78.82;;;;;;;-5.50;100.00;103092.09;4984984;28;20479;-82
2022/03/15 03:25:04;;;;;;;131.68;80.97;;;;;;;-5.66;100.00;103079.53;4990900;28;20054;-82
2022/03/15 03:27:31;;;;;;;97.03;72.72;;;;;;;-6.09;100.00;103083.34;4982511;28;20533;-81
2022/03/15 03:29:59;;;;;;;132.40;81.97;;;;;;;-5.96;100.00;103070.06;4988739;28;20082;-82
2022/03/15 03:32:26;;;;;;;118.80;79.32;;;;;;;-5.89;100.00;103071.59;4996080;28;20078;-79
2022/03/15 03:34:53;;;;;;;127.43;84.28;;;;;;;-5.80;100.00;103063.56;4977110;28;20100;-79
2022/03/15 03:37:20;;;;;;;144.13;86.00;;;;;;;-5.77;100.00;103066.06;4983702;28;20466;-80
2022/03/15 03:39:47;;;;;;;210.93;104.78;;;;;;;-5.65;100.00;103052.78;4985380;28;20126;-79
2022/03/15 03:42:14;;;;;;;221.68;107.65;;;;;;;-5.48;100.00;103060.03;4986251;28;20388;-81
2022/03/15 03:44:42;;;;;;;174.23;96.05;;;;;;;-6.11;100.00;103059.25;4988868;28;20121;-82
2022/03/15 03:47:11;;;;;;;179.10;101.03;;;;;;;-5.80;100.00;103048.03;4990735;28;20050;-80
2022/03/15 03:49:38;;;;;;;174.50;96.28;;;;;;;-5.96;100.00;103039.88;4984841;28;20126;-82
2022/03/15 03:52:06;;;;;;;165.45;94.88;;;;;;;-5.96;100.00;103047.66;4988801;28;20517;-80
2022/03/15 03:54:33;;;;;;;160.82;92.07;;;;;;;-6.24;100.00;103050.09;4984461;28;20078;-79
2022/03/15 03:57:00;;;;;;;141.55;89.05;;;;;;;-5.96;100.00;103045.06;4984293;28;20112;-80
2022/03/15 03:59:27;;;;;;;166.23;97.68;;;;;;;-6.04;100.00;103045.25;4987262;28;20053;-81
2022/03/15 04:01:53;;;;;;;153.48;89.20;;;;;;;-6.53;100.00;103046.53;4989869;28;20055;-79
2022/03/15 04:04:22;;;;;;;167.40;93.55;;;;;;;-6.16;100.00;103034.41;4987427;28;20128;-80
2022/03/15 04:06:48;;;;;;;167.27;93.15;;;;;;;-6.22;100.00;103033.66;4987652;28;20054;-80
2022/03/15 04:09:16;;;;;;;169.85;90.72;;;;;;;-6.52;100.00;103045.66;4987520;28;20054;-80
2022/03/15 04:11:43;;;;;;;274.45;123.85;;;;;;;-6.22;100.00;103050.94;4985631;28;20150;-80
2022/03/15 04:14:11;;;;;;;246.63;120.20;;;;;;;-6.19;100.00;103048.25;4985458;28;20160;-82
2022/03/15 04:16:38;;;;;;;171.90;99.65;;;;;;;-6.21;100.00;103052.63;4992869;28;20061;-80
2022/03/15 04:19:05;;;;;;;133.30;87.80;;;;;;;-6.31;100.00;103054.59;4985019;28;20114;-79
2022/03/15 04:21:33;;;;;;;126.93;84.78;;;;;;;-6.29;100.00;103049.41;4986720;28;20129;-81
2022/03/15 04:24:00;;;;;;;126.65;78.78;;;;;;;-6.33;100.00;103042.59;4986073;28;20113;-82
2022/03/15 04:26:28;;;;;;;109.03;74.93;;;;;;;-6.41;100.00;103044.50;4985108;28;20058;-82
2022/03/15 04:28:55;;;;;;;123.70;78.32;;;;;;;-6.43;100.00;103035.97;4989745;28;20481;-82
2022/03/15 04:31:23;;;;;;;114.20;75.32;;;;;;;-6.48;100.00;103038.66;4992451;28;20495;-80
2022/03/15 04:33:50;;;;;;;119.10;74.03;;;;;;;-6.57;100.00;103050.06;4985532;28;20050;-79
2022/03/15 04:36:17;;;;;;;129.38;75.07;;;;;;;-6.55;100.00;103057.81;4985876;28;20043;-79
2022/03/15 04:38:45;;;;;;;118.93;73.43;;;;;;;-6.40;100.00;103044.50;4987061;28;20062;-80
2022/03/15 04:41:13;;;;;;;116.18;73.95;;;;;;;-6.40;100.00;103041.06;4987148;28;20108;-82
2022/03/15 04:43:40;;;;;;;113.00;71.20;;;;;;;-6.40;100.00;103049.66;4984447;28;20058;-80
2022/03/15 04:46:07;;;;;;;124.53;74.22;;;;;;;-6.69;100.00;103052.97;4993690;28;20114;-82
2022/03/15 04:48:34;;;;;;;126.78;75.43;;;;;;;-6.38;100.00;103047.91;4984957;28;20153;-81
2022/03/15 04:51:01;;;;;;;124.32;73.88;;;;;;;-6.32;100.00;103060.66;4976016;28;20050;-78
2022/03/15 04:53:28;;;;;;;105.93;68.03;;;;;;;-6.28;100.00;103061.44;4986358;28;20049;-82
2022/03/15 04:55:56;;;;;;;114.05;72.03;;;;;;;-6.12;100.00;103069.63;4981063;28;20050;-81
2022/03/15 04:58:23;;;;;;;125.72;74.00;;;;;;;-6.12;100.00;103062.72;4984056;28;20050;-80
2022/03/15 05:00:50;;;;;;;113.90;74.82;;;;;;;-5.97;100.00;103068.38;4993807;28;20142;-79
2022/03/15 05:03:17;;;;;;;272.60;118.10;;;;;;;-5.96;100.00;103068.34;4975466;28;20483;-82
2022/03/15 05:05:44;;;;;;;185.77;93.55;;;;;;;-5.97;100.00;103068.38;4982194;28;20134;-79
2022/03/15 05:08:11;;;;;;;107.20;72.20;;;;;;;-5.82;100.00;103068.78;4989326;28;20486;-80
2022/03/15 05:13:26;;;;;;;104.38;72.95;;;;;;;-5.57;100.00;103086.22;4987015;28;20512;-79
2022/03/15 05:15:53;;;;;;;205.90;98.22;;;;;;;-5.47;100.00;103077.31;4982648;28;20074;-81
2022/03/15 05:18:20;;;;;;;664.05;271.98;;;;;;;-5.35;100.00;103071.75;4984356;28;20054;-81
2022/03/15 05:20:47;;;;;;;285.38;125.72;;;;;;;-5.32;100.00;103068.25;4987441;28;20129;-82
2022/03/15 05:23:14;;;;;;;202.68;108.00;;;;;;;-5.19;100.00;103066.97;4986072;28;20375;-82
2022/03/15 05:25:40;;;;;;;224.88;112.65;;;;;;;-5.01;100.00;103073.34;4980272;28;20475;-80
2022/03/15 05:28:08;;;;;;;339.52;149.38;;;;;;;-4.88;100.00;103066.84;4985934;28;20525;-79
2022/03/15 05:30:37;;;;;;;236.52;122.20;;;;;;;-4.66;100.00;103058.38;4993654;28;20064;-82
2022/03/15 05:33:04;;;;;;;232.43;124.13;;;;;;;-4.57;100.00;103065.88;4983699;28;20050;-81
2022/03/15 05:35:31;;;;;;;253.18;128.52;;;;;;;-4.49;100.00;103066.47;4986271;28;20054;-82
2022/03/15 05:37:58;;;;;;;237.88;121.85;;;;;;;-4.42;100.00;103061.91;4985650;28;20050;-81
2022/03/15 05:40:25;;;;;;;246.95;124.05;;;;;;;-4.08;100.00;103079.81;4984889;28;20462;-81
2022/03/15 05:42:51;;;;;;;252.55;127.78;;;;;;;-4.31;100.00;103080.59;4983725;28;20386;-79
2022/03/15 05:45:18;;;;;;;244.15;123.32;;;;;;;-3.85;100.00;103083.34;4987524;28;20046;-82
2022/03/15 05:47:46;;;;;;;227.82;115.35;;;;;;;-3.37;100.00;103087.66;4984294;28;20475;-79
2022/03/15 05:50:13;;;;;;;200.82;115.75;;;;;;;-3.35;100.00;103078.06;4983862;28;20070;-82
2022/03/15 05:52:40;;;;;;;266.00;143.50;;;;;;;-3.33;100.00;103079.69;4984919;28;20058;-82
2022/03/15 05:55:07;;;;;;;225.90;124.40;;;;;;;-2.93;100.00;103083.34;4985594;28;20113;-81
2022/03/15 05:57:34;;;;;;;179.63;119.68;;;;;;;-2.81;100.00;103075.06;4983855;28;20060;-81
2022/03/15 06:00:00;;;;;;;163.98;110.30;;;;;;;-2.68;100.00;103078.00;4983615;28;20082;-82
2022/03/15 06:02:27;;;;;;;149.70;108.55;;;;;;;-2.43;100.00;103066.59;4981864;28;20506;-83
2022/03/15 06:04:55;;;;;;;127.55;99.18;;;;;;;-2.10;100.00;103069.53;4983287;28;20047;-80
2022/03/15 06:07:22;;;;;;;102.78;88.80;;;;;;;-1.88;100.00;103072.03;4984149;28;20046;-79
2022/03/15 06:09:49;;;;;;;115.82;86.97;;;;;;;-1.70;100.00;103073.81;4982102;28;20117;-80
2022/03/15 06:12:16;;;;;;;129.25;94.00;;;;;;;-1.39;100.00;103083.72;4986340;28;20396;-83
2022/03/15 06:14:42;;;;;;;104.53;86.30;;;;;;;-1.05;100.00;103076.94;4983451;28;20376;-80
2022/03/15 06:17:09;;;;;;;112.35;92.32;;;;;;;-0.86;100.00;103069.06;4979162;28;20055;-79
2022/03/15 06:19:36;;;;;;;121.60;98.07;;;;;;;-0.62;100.00;103066.19;4983575;28;20134;-79
2022/03/15 06:22:04;;;;;;;121.22;101.45;;;;;;;-0.22;100.00;103072.03;4986929;28;20046;-79
2022/03/15 06:24:32;;;;;;;117.15;95.85;;;;;;;-0.10;100.00;103084.47;4985367;28;20499;-80
2022/03/15 06:26:59;;;;;;;117.15;97.68;;;;;;;0.45;100.00;103090.28;4988495;28;20042;-82
2022/03/15 06:29:26;;;;;;;109.75;95.38;;;;;;;0.34;100.00;103073.47;4987789;28;20423;-79
2022/03/15 06:31:54;;;;;;;113.47;95.57;;;;;;;0.39;100.00;103079.28;4977820;28;20483;-83
2022/03/15 06:34:20;;;;;;;108.60;91.55;;;;;;;1.07;100.00;103086.94;4984055;28;20475;-81
2022/03/15 06:36:47;;;;;;;104.47;86.40;;;;;;;1.19;100.00;103104.56;4983458;28;20047;-79
2022/03/15 06:39:15;;;;;;;93.85;83.90;;;;;;;1.98;100.00;103095.63;4984519;28;20538;-81
2022/03/15 06:41:43;;;;;;;84.45;76.00;;;;;;;2.01;100.00;103087.59;4986290;28;20105;-82
2022/03/15 06:44:10;;;;;;;80.93;73.07;;;;;;;1.98;100.00;103093.84;4987875;28;20145;-80
2022/03/15 06:46:37;;;;;;;85.43;76.97;;;;;;;2.32;100.00;103096.22;4984559;28;20462;-82
2022/03/15 06:49:05;;;;;;;88.93;80.03;;;;;;;2.69;100.00;103100.88;4985504;28;20454;-81
2022/03/15 06:51:32;;;;;;;85.57;77.05;;;;;;;3.04;100.00;103103.03;4986386;28;20060;-80
2022/03/15 06:53:59;;;;;;;86.90;78.72;;;;;;;2.91;100.00;103102.16;4992486;28;20046;-79
2022/03/15 06:56:27;;;;;;;94.20;84.63;;;;;;;2.97;100.00;103093.88;4983152;28;20054;-81
2022/03/15 06:58:54;;;;;;;90.75;82.38;;;;;;;3.24;100.00;103093.03;4985280;28;20083;-79
2022/03/15 07:01:21;;;;;;;80.40;73.88;;;;;;;2.81;100.00;103095.78;4992500;28;20495;-81
2022/03/15 07:03:49;;;;;;;76.68;70.28;;;;;;;3.57;100.00;103100.47;4991790;28;20046;-79
2022/03/15 07:06:17;;;;;;;75.25;69.47;;;;;;;3.56;100.00;103096.19;4996473;28;20061;-80
2022/03/15 07:08:46;;;;;;;81.20;74.38;;;;;;;3.35;100.00;103109.78;4992913;28;20113;-79
2022/03/15 07:11:14;;;;;;;79.90;73.45;;;;;;;3.80;100.00;103112.09;4983407;28;20078;-81
2022/03/15 07:13:43;;;;;;;79.25;72.80;;;;;;;3.86;100.00;103109.06;4988849;28;20116;-81
2022/03/15 07:16:09;;;;;;;81.53;74.85;;;;;;;3.74;100.00;103109.88;4979715;28;20446;-80
2022/03/15 07:18:36;;;;;;;76.78;70.95;;;;;;;3.64;100.00;103112.28;4996190;28;20058;-79
2022/03/15 07:21:03;;;;;;;84.45;77.57;;;;;;;3.73;100.00;103114.31;4995404;28;20050;-80
2022/03/15 07:23:30;;;;;;;81.88;75.18;;;;;;;4.27;100.00;103100.97;4993333;28;20463;-81
2022/03/15 07:25:57;;;;;;;92.75;84.70;;;;;;;4.16;100.00;103103.50;4994846;28;20042;-79
2022/03/15 07:28:23;;;;;;;87.72;80.82;;;;;;;3.78;100.00;103098.22;4997082;28;20050;-79
2022/03/15 07:30:51;;;;;;;83.28;76.50;;;;;;;3.93;100.00;103096.34;4989018;28;20054;-81
2022/03/15 07:33:18;;;;;;;79.25;72.88;;;;;;;3.98;100.00;103091.59;4995728;28;20451;-79
2022/03/15 07:35:45;;;;;;;77.30;71.15;;;;;;;3.68;100.00;103101.44;4995768;28;20042;-81
2022/03/15 07:38:16;;;;;;;77.05;70.93;;;;;;;3.96;100.00;103106.63;4988548;28;20479;-80
2022/03/15 07:40:43;;;;;;;79.50;72.93;;;;;;;4.28;100.00;103113.19;4996600;28;20442;-80
2022/03/15 07:43:11;;;;;;;73.70;68.10;;;;;;;3.96;100.00;103109.28;4994304;28;20178;-79
2022/03/15 07:45:38;;;;;;;80.30;74.00;;;;;;;4.39;100.00;103122.09;4987647;28;20042;-80
2022/03/15 07:48:06;;;;;;;84.43;77.72;;;;;;;4.55;100.00;103126.19;4990064;28;20082;-81
2022/03/15 07:50:34;;;;;;;81.35;74.63;;;;;;;5.01;100.00;103125.56;4995853;28;20445;-80
2022/03/15 07:53:00;;;;;;;86.65;79.75;;;;;;;4.53;100.00;103112.28;4997039;28;20053;-80
2022/03/15 07:55:27;;;;;;;85.57;78.78;;;;;;;5.10;100.00;103117.94;4990674;28;20058;-80
2022/03/15 08:00:36;;;;;;;83.28;76.57;;;;;;;5.22;100.00;103123.16;5095140;27;20880;-78
2022/03/15 08:03:02;;;;;;;85.85;78.72;;;;;;;4.34;100.00;103120.63;5082221;28;20059;-79
2022/03/15 08:05:29;;;;;;;78.80;72.63;;;;;;;4.62;100.00;103123.13;5086588;28;20480;-79
2022/03/15 08:07:56;;;;;;;75.00;69.38;;;;;;;4.72;100.00;103126.78;5078628;28;20044;-81
2022/03/15 08:10:23;;;;;;;73.82;68.22;;;;;;;4.96;100.00;103124.19;5084321;28;20053;-79
2022/03/15 08:12:50;;;;;;;75.28;69.45;;;;;;;5.27;100.00;103115.78;5085354;28;20048;-80
2022/03/15 08:15:17;;;;;;;74.97;68.60;;;;;;;5.26;100.00;103115.88;5076718;28;20048;-80
2022/03/15 08:17:45;;;;;;;86.82;79.68;;;;;;;5.80;100.00;103112.72;5080571;28;20057;-80
2022/03/15 08:20:17;;;;;;;83.20;76.40;;;;;;;7.37;100.00;103113.63;5085111;28;20535;-79
2022/03/15 08:22:44;;;;;;;80.50;74.00;;;;;;;5.88;100.00;103114.78;5082325;28;20131;-80
2022/03/15 08:25:11;;;;;;;81.15;74.45;;;;;;;5.53;100.00;103117.44;5090518;28;20052;-80
2022/03/15 08:27:37;;;;;;;84.93;78.13;;;;;;;5.28;100.00;103116.59;5078571;28;20052;-80
2022/03/15 08:30:05;;;;;;;87.30;79.95;;;;;;;5.94;100.00;103109.91;5082271;28;20052;-80
2022/03/15 08:32:32;;;;;;;87.40;79.82;;;;;;;6.01;100.00;103097.09;5095003;28;20045;-79
2022/03/15 08:35:00;;;;;;;81.78;75.18;;;;;;;7.58;98.06;103093.31;5080332;28;20053;-79
2022/03/15 08:37:27;;;;;;;81.20;74.80;;;;;;;6.76;86.77;103091.19;5090663;28;20120;-80
2022/03/15 08:39:55;;;;;;;78.82;72.22;;;;;;;6.69;92.14;103089.16;5085810;28;20468;-80
2022/03/15 08:42:22;;;;;;;76.57;70.35;;;;;;;6.17;98.78;103086.19;5084374;28;20048;-80
2022/03/15 08:44:48;;;;;;;78.22;72.13;;;;;;;6.50;87.41;103077.41;5079245;28;20080;-79
2022/03/15 08:47:15;;;;;;;81.85;75.15;;;;;;;6.71;87.74;103088.06;5081477;28;20048;-80
2022/03/15 08:49:43;;;;;;;76.63;70.35;;;;;;;7.07;99.65;103091.34;5085882;28;20048;-80
2022/03/15 08:52:12;;;;;;;83.53;76.75;;;;;;;7.91;80.72;103087.00;5082198;28;20429;-79
2022/03/15 08:54:39;;;;;;;79.32;72.72;;;;;;;6.47;83.94;103087.38;5082068;28;20118;-79
2022/03/15 08:57:08;;;;;;;81.40;74.25;;;;;;;6.58;97.34;103082.94;5084317;28;20532;-82
2022/03/15 08:59:35;;;;;;;80.13;73.53;;;;;;;6.85;98.76;103079.91;5082783;28;20052;-79
2022/03/15 09:02:03;;;;;;;88.80;81.20;;;;;;;6.65;93.17;103078.84;5079838;28;20055;-80
2022/03/15 09:04:29;;;;;;;82.75;75.55;;;;;;;7.50;94.40;103066.66;5086030;28;20091;-80
2022/03/15 09:06:56;;;;;;;80.80;74.05;;;;;;;7.92;87.91;103064.00;5084231;28;20075;-80
2022/03/15 09:09:25;;;;;;;80.50;73.60;;;;;;;9.11;85.51;103073.88;5077867;28;20041;-80
2022/03/15 09:11:54;;;;;;;78.82;72.50;;;;;;;8.57;75.13;103056.66;5075114;28;20036;-80
2022/03/15 09:14:21;;;;;;;83.75;76.60;;;;;;;7.49;77.24;103057.91;5071039;28;20049;-80
2022/03/15 09:16:48;;;;;;;82.72;76.03;;;;;;;7.03;93.88;103058.22;5068187;28;20466;-80
2022/03/15 09:19:15;;;;;;;87.38;80.05;;;;;;;7.29;90.78;103056.94;5069289;28;20114;-80
2022/03/15 09:21:41;;;;;;;84.03;77.03;;;;;;;7.65;99.49;103053.97;5070034;28;20580;-80
2022/03/15 09:24:08;;;;;;;87.20;79.75;;;;;;;7.95;82.38;103047.88;5070594;28;20052;-77
2022/03/15 09:26:38;;;;;;;89.40;81.63;;;;;;;9.90;74.65;103043.63;5077328;28;20476;-79
2022/03/15 09:29:06;;;;;;;84.68;77.35;;;;;;;7.91;75.69;103044.66;5068449;28;20149;-80
2022/03/15 09:31:33;;;;;;;85.50;78.20;;;;;;;7.80;87.64;103037.63;5062306;28;20044;-78
2022/03/15 09:33:59;;;;;;;87.25;79.43;;;;;;;8.15;83.65;103038.22;5071960;28;20040;-79
2022/03/15 09:36:26;;;;;;;87.90;80.20;;;;;;;8.87;92.74;103039.84;5067091;28;20056;-80
2022/03/15 09:38:53;;;;;;;88.40;80.60;;;;;;;8.89;85.04;103030.75;5068911;28;20044;-80
2022/03/15 09:41:21;;;;;;;82.55;75.50;;;;;;;7.86;98.31;103041.56;5064821;28;20103;-79
2022/03/15 09:43:51;;;;;;;79.95;73.40;;;;;;;7.91;99.01;103031.41;5071291;28;20044;-81
2022/03/15 09:46:21;;;;;;;81.93;75.18;;;;;;;8.64;91.61;103042.72;5062907;28;20059;-80
2022/03/15 09:48:53;;;;;;;82.10;75.35;;;;;;;9.66;88.06;103031.69;5070681;28;20068;-81
2022/03/15 09:51:20;;;;;;;80.28;73.85;;;;;;;8.61;89.33;103024.44;5069895;28;20148;-80
2022/03/15 09:53:48;;;;;;;81.05;74.35;;;;;;;8.33;100.00;103027.84;5061993;28;20436;-79
2022/03/15 09:56:16;;;;;;;82.82;75.82;;;;;;;8.33;90.22;103015.44;5060905;28;20120;-79
2022/03/15 09:58:44;;;;;;;85.20;77.93;;;;;;;9.25;85.55;103015.13;5060416;28;20505;-79
2022/03/15 10:01:17;;;;;;;87.70;80.50;;;;;;;10.43;74.85;103009.28;5060969;28;20040;-80
2022/03/15 10:03:44;;;;;;;79.97;73.60;;;;;;;8.74;86.98;103008.28;5061968;28;20060;-79
2022/03/15 10:06:11;;;;;;;82.18;75.28;;;;;;;9.29;88.29;103011.22;5071882;28;20056;-79
2022/03/15 10:08:37;;;;;;;80.15;73.22;;;;;;;8.88;88.34;103007.03;5071665;28;20049;-80
2022/03/15 10:11:05;;;;;;;86.20;78.75;;;;;;;8.45;93.98;102995.00;5071284;28;20410;-80
2022/03/15 10:13:33;;;;;;;85.13;78.25;;;;;;;9.49;81.15;102985.47;5066611;28;20076;-79
2022/03/15 10:16:03;;;;;;;88.55;81.22;;;;;;;10.18;81.36;102978.94;5063585;28;20474;-80
2022/03/15 10:18:32;;;;;;;83.20;76.50;;;;;;;9.57;79.00;102982.97;5070466;28;20140;-80
2022/03/15 10:20:58;;;;;;;88.25;81.25;;;;;;;11.32;67.48;102971.22;5077610;28;20052;-79
2022/03/15 10:23:29;;;;;;;88.60;81.30;;;;;;;9.54;67.46;102971.81;5072277;28;20055;-78
2022/03/15 10:25:57;;;;;;;84.57;77.68;;;;;;;10.29;76.42;102973.47;5067728;28;20485;-79
2022/03/15 10:28:24;;;;;;;91.15;83.18;;;;;;;11.21;63.27;102948.34;5068278;28;20447;-80
2022/03/15 10:30:51;;;;;;;89.85;82.05;;;;;;;11.51;64.91;102954.19;5060940;28;20084;-79
2022/03/15 10:33:19;;;;;;;86.00;78.88;;;;;;;11.04;70.13;102945.72;5071385;28;20117;-78
2022/03/15 10:35:49;;;;;;;86.35;79.18;;;;;;;10.74;64.60;102950.47;5068261;28;20109;-79
2022/03/15 10:38:17;;;;;;;85.28;78.28;;;;;;;10.07;66.04;102928.66;5074570;28;20060;-80
2022/03/15 10:40:45;;;;;;;82.95;76.05;;;;;;;10.96;76.69;102923.41;5066630;28;20057;-79
2022/03/15 10:43:13;;;;;;;85.22;78.13;;;;;;;9.75;71.30;102927.31;5066493;28;20049;-80
2022/03/15 10:45:44;;;;;;;87.97;80.53;;;;;;;10.84;57.03;102932.63;5079888;28;20052;-78
2022/03/15 10:48:17;;;;;;;82.72;75.80;;;;;;;10.76;63.25;102919.25;5075167;28;20049;-79
2022/03/15 10:50:54;;;;;;;81.18;74.55;;;;;;;10.82;69.98;102920.47;5076013;28;20127;-79
2022/03/15 10:53:22;;;;;;;85.07;78.10;;;;;;;10.48;61.65;102914.03;5072954;28;20056;-78
2022/03/15 10:55:49;;;;;;;82.82;75.97;;;;;;;10.06;63.62;102903.94;5068510;28;20052;-78
2022/03/15 10:58:22;;;;;;;84.00;77.20;;;;;;;11.48;57.74;102903.13;5077356;28;20040;-78
2022/03/15 11:00:54;;;;;;;84.15;77.57;;;;;;;11.65;61.47;102902.22;5065869;28;20045;-80
2022/03/15 11:03:25;;;;;;;87.20;80.10;;;;;;;10.25;59.54;102904.81;5078061;28;20405;-78
2022/03/15 11:06:03;;;;;;;88.88;81.45;;;;;;;10.99;61.02;102896.50;5076753;28;20063;-78
2022/03/15 11:08:30;;;;;;;91.22;84.13;;;;;;;12.45;57.55;102896.47;5077344;28;20459;-79
2022/03/15 11:11:02;;;;;;;91.80;84.25;;;;;;;11.96;51.51;102893.72;5071430;28;20049;-78